createdAt,value
2023-03-30T00:00:31.056Z,983.74
2023-03-30T00:01:31.065Z,983.68
2023-03-30T00:02:31.195Z,983.69
2023-03-30T00:03:31.203Z,983.61
2023-03-30T00:04:31.189Z,983.54
2023-03-30T00:05:31.032Z,983.61
2023-03-30T00:06:30.996Z,983.60
2023-03-30T00:07:30.996Z,983.62
2023-03-30T00:08:31.024Z,983.61
2023-03-30T00:09:30.971Z,983.63
2023-03-30T00:10:30.941Z,983.58
2023-03-30T00:11:30.970Z,983.55
2023-03-30T00:12:30.960Z,983.52
2023-03-30T00:13:30.910Z,983.50
2023-03-30T00:14:30.963Z,983.67
2023-03-30T00:15:30.934Z,983.61
2023-03-30T00:16:30.955Z,983.59
2023-03-30T00:17:30.917Z,983.62
2023-03-30T00:18:30.897Z,983.58
2023-03-30T00:19:30.872Z,983.55
2023-03-30T00:20:30.907Z,983.52
2023-03-30T00:21:30.876Z,983.52
2023-03-30T00:22:30.819Z,983.43
2023-03-30T00:23:30.839Z,983.46
2023-03-30T00:24:30.842Z,983.42
2023-03-30T00:25:30.819Z,983.44
2023-03-30T00:26:30.775Z,983.39
2023-03-30T00:27:30.770Z,983.40
2023-03-30T00:28:30.838Z,983.46
2023-03-30T00:29:30.748Z,983.44
2023-03-30T00:30:30.780Z,983.46
2023-03-30T00:31:30.745Z,983.41
2023-03-30T00:32:30.742Z,983.40
2023-03-30T00:33:44.153Z,983.41
2023-03-30T00:34:32.727Z,983.37
2023-03-30T00:35:30.773Z,983.32
2023-03-30T00:36:30.656Z,983.30
2023-03-30T00:37:30.677Z,983.35
2023-03-30T00:38:30.651Z,983.39
2023-03-30T00:39:30.642Z,983.37
2023-03-30T00:40:30.642Z,983.36
2023-03-30T00:41:30.625Z,983.36
2023-03-30T00:42:30.603Z,983.35
2023-03-30T00:43:30.587Z,983.36
2023-03-30T00:44:30.595Z,983.36
2023-03-30T00:45:30.566Z,983.41
2023-03-30T00:46:30.667Z,983.35
2023-03-30T00:47:30.582Z,983.32
2023-03-30T00:48:30.564Z,983.33
2023-03-30T00:49:30.519Z,983.33
2023-03-30T00:50:30.508Z,983.33
2023-03-30T00:51:30.493Z,983.29
2023-03-30T00:52:30.497Z,983.27
2023-03-30T00:53:30.483Z,983.26
2023-03-30T00:54:30.487Z,983.30
2023-03-30T00:55:30.452Z,983.29
2023-03-30T00:56:30.451Z,983.29
2023-03-30T00:57:30.450Z,983.29
2023-03-30T00:58:30.438Z,983.25
2023-03-30T00:59:30.410Z,983.22
2023-03-30T01:00:30.401Z,983.27
2023-03-30T01:01:30.452Z,983.19
2023-03-30T01:02:30.441Z,983.30
2023-03-30T01:03:30.529Z,983.22
2023-03-30T01:04:30.366Z,983.29
2023-03-30T01:05:30.357Z,983.31
2023-03-30T01:06:30.376Z,983.24
2023-03-30T01:07:30.314Z,983.32
2023-03-30T01:08:30.328Z,983.30
2023-03-30T01:09:30.291Z,983.27
2023-03-30T01:10:30.295Z,983.28
2023-03-30T01:11:30.295Z,983.22
2023-03-30T01:12:30.262Z,983.22
2023-03-30T01:13:30.250Z,983.23
2023-03-30T01:14:30.251Z,983.26
2023-03-30T01:15:30.252Z,983.24
2023-03-30T01:16:30.212Z,983.21
2023-03-30T01:17:30.236Z,983.21
2023-03-30T01:18:30.206Z,983.22
2023-03-30T01:19:30.189Z,983.19
2023-03-30T01:20:30.155Z,983.18
2023-03-30T01:21:30.148Z,983.26
2023-03-30T01:22:30.196Z,983.22
2023-03-30T01:23:30.169Z,983.24
2023-03-30T01:24:30.107Z,983.23
2023-03-30T01:25:30.124Z,983.09
2023-03-30T01:26:30.109Z,983.13
2023-03-30T01:27:30.085Z,983.17
2023-03-30T01:28:30.090Z,983.11
2023-03-30T01:29:30.073Z,983.11
2023-03-30T01:30:30.031Z,983.13
2023-03-30T01:31:30.061Z,983.17
2023-03-30T01:32:30.076Z,983.23
2023-03-30T01:33:30.032Z,983.25
2023-03-30T01:34:30.016Z,983.28
2023-03-30T01:35:30.125Z,983.28
2023-03-30T01:36:30.029Z,983.23
2023-03-30T01:37:29.965Z,983.26
2023-03-30T01:38:30.001Z,983.14
2023-03-30T01:39:29.953Z,983.13
2023-03-30T01:40:29.926Z,983.08
2023-03-30T01:41:30.044Z,983.04
2023-03-30T01:42:29.907Z,982.99
2023-03-30T01:43:29.924Z,982.86
2023-03-30T01:44:29.912Z,982.86
2023-03-30T01:45:29.889Z,982.92
2023-03-30T01:46:29.866Z,982.83
2023-03-30T01:47:29.885Z,982.88
2023-03-30T01:48:29.881Z,982.88
2023-03-30T01:49:29.847Z,982.89
2023-03-30T01:50:29.799Z,982.83
2023-03-30T01:51:29.814Z,982.89
2023-03-30T01:52:29.897Z,982.88
2023-03-30T01:53:29.794Z,982.92
2023-03-30T01:54:29.763Z,982.97
2023-03-30T01:55:29.773Z,982.99
2023-03-30T01:56:29.768Z,982.91
2023-03-30T01:57:29.730Z,982.90
2023-03-30T01:58:29.750Z,982.84
2023-03-30T01:59:29.720Z,982.87
2023-03-30T02:00:29.687Z,982.83
2023-03-30T02:01:29.704Z,982.86
2023-03-30T02:02:29.822Z,982.83
2023-03-30T02:03:29.771Z,982.81
2023-03-30T02:04:29.655Z,982.91
2023-03-30T02:05:29.680Z,982.89
2023-03-30T02:06:29.622Z,982.87
2023-03-30T02:07:29.621Z,982.92
2023-03-30T02:08:29.643Z,982.86
2023-03-30T02:09:29.611Z,982.91
2023-03-30T02:10:29.592Z,982.83
2023-03-30T02:11:29.583Z,982.75
2023-03-30T02:12:29.586Z,982.82
2023-03-30T02:13:29.571Z,982.76
2023-03-30T02:14:29.576Z,982.71
2023-03-30T02:15:29.543Z,982.76
2023-03-30T02:16:29.528Z,982.66
2023-03-30T02:17:29.533Z,982.70
2023-03-30T02:18:29.521Z,982.67
2023-03-30T02:19:29.511Z,982.61
2023-03-30T02:20:29.461Z,982.56
2023-03-30T02:21:29.492Z,982.56
2023-03-30T02:22:29.497Z,982.65
2023-03-30T02:23:29.443Z,982.56
2023-03-30T02:24:30.430Z,982.62
2023-03-30T02:25:29.417Z,982.57
2023-03-30T02:26:29.438Z,982.52
2023-03-30T02:27:29.400Z,982.56
2023-03-30T02:28:29.374Z,982.55
2023-03-30T02:29:29.390Z,982.48
2023-03-30T02:30:29.343Z,982.52
2023-03-30T02:31:29.389Z,982.44
2023-03-30T02:32:29.397Z,982.51
2023-03-30T02:33:29.334Z,982.52
2023-03-30T02:34:29.306Z,982.53
2023-03-30T02:35:29.309Z,982.59
2023-03-30T02:36:29.328Z,982.61
2023-03-30T02:37:29.315Z,982.58
2023-03-30T02:38:29.291Z,982.60
2023-03-30T02:39:29.264Z,982.64
2023-03-30T02:40:29.244Z,982.62
2023-03-30T02:41:29.231Z,982.69
2023-03-30T02:42:29.254Z,982.72
2023-03-30T02:43:29.214Z,982.70
2023-03-30T02:44:29.191Z,982.71
2023-03-30T02:45:29.216Z,982.73
2023-03-30T02:46:29.165Z,982.67
2023-03-30T02:47:29.185Z,982.61
2023-03-30T02:48:29.203Z,982.62
2023-03-30T02:49:29.149Z,982.63
2023-03-30T02:50:29.131Z,982.59
2023-03-30T02:51:29.113Z,982.65
2023-03-30T02:52:29.141Z,982.69
2023-03-30T02:53:29.109Z,982.67
2023-03-30T02:54:29.072Z,982.53
2023-03-30T02:55:29.083Z,982.60
2023-03-30T02:56:29.119Z,982.61
2023-03-30T02:57:29.163Z,982.56
2023-03-30T02:58:29.049Z,982.64
2023-03-30T02:59:29.033Z,982.65
2023-03-30T03:00:29.050Z,982.61
2023-03-30T03:01:29.029Z,982.65
2023-03-30T03:02:29.091Z,982.59
2023-03-30T03:03:29.027Z,982.59
2023-03-30T03:04:28.961Z,982.51
2023-03-30T03:05:28.957Z,982.46
2023-03-30T03:06:28.974Z,982.45
2023-03-30T03:07:28.955Z,982.52
2023-03-30T03:08:28.940Z,982.53
2023-03-30T03:09:28.931Z,982.56
2023-03-30T03:10:28.887Z,982.58
2023-03-30T03:11:28.911Z,982.59
2023-03-30T03:12:28.895Z,982.74
2023-03-30T03:13:28.911Z,982.65
2023-03-30T03:14:28.855Z,982.76
2023-03-30T03:15:28.847Z,982.72
2023-03-30T03:16:29.944Z,982.73
2023-03-30T03:17:28.918Z,982.71
2023-03-30T03:18:28.834Z,982.67
2023-03-30T03:19:28.818Z,982.68
2023-03-30T03:20:28.775Z,982.58
2023-03-30T03:21:28.773Z,982.63
2023-03-30T03:22:28.807Z,982.53
2023-03-30T03:23:28.764Z,982.52
2023-03-30T03:24:28.742Z,982.50
2023-03-30T03:25:28.756Z,982.52
2023-03-30T03:26:28.751Z,982.51
2023-03-30T03:27:28.716Z,982.44
2023-03-30T03:28:28.721Z,982.42
2023-03-30T03:29:28.686Z,982.41
2023-03-30T03:30:28.722Z,982.35
2023-03-30T03:31:28.753Z,982.32
2023-03-30T03:32:28.687Z,982.26
2023-03-30T03:33:28.661Z,982.20
2023-03-30T03:34:28.623Z,982.16
2023-03-30T03:35:28.669Z,982.07
2023-03-30T03:36:28.640Z,982.07
2023-03-30T03:37:28.600Z,982.12
2023-03-30T03:38:28.581Z,982.16
2023-03-30T03:39:28.603Z,982.09
2023-03-30T03:40:28.591Z,982.06
2023-03-30T03:41:28.540Z,982.07
2023-03-30T03:42:29.586Z,981.95
2023-03-30T03:43:28.538Z,981.91
2023-03-30T03:44:28.538Z,981.97
2023-03-30T03:45:28.567Z,981.98
2023-03-30T03:46:28.572Z,982.10
2023-03-30T03:47:28.508Z,982.17
2023-03-30T03:48:28.482Z,982.11
2023-03-30T03:49:28.501Z,982.11
2023-03-30T03:50:28.447Z,982.21
2023-03-30T03:51:28.437Z,982.18
2023-03-30T03:52:28.465Z,982.15
2023-03-30T03:53:28.430Z,982.13
2023-03-30T03:54:28.410Z,982.03
2023-03-30T03:55:28.411Z,982.04
2023-03-30T03:56:28.414Z,981.98
2023-03-30T03:57:28.423Z,982.02
2023-03-30T03:58:28.361Z,981.96
2023-03-30T03:59:28.378Z,981.90
2023-03-30T04:00:28.432Z,981.88
2023-03-30T04:01:29.352Z,981.86
2023-03-30T04:02:28.439Z,981.86
2023-03-30T04:03:28.333Z,981.84
2023-03-30T04:04:28.361Z,981.90
2023-03-30T04:05:28.274Z,981.84
2023-03-30T04:06:28.294Z,981.82
2023-03-30T04:07:28.281Z,981.81
2023-03-30T04:08:28.262Z,981.82
2023-03-30T04:09:28.267Z,981.84
2023-03-30T04:10:28.253Z,981.89
2023-03-30T04:11:28.228Z,981.91
2023-03-30T04:12:28.219Z,981.88
2023-03-30T04:13:28.208Z,981.87
2023-03-30T04:14:28.169Z,981.85
2023-03-30T04:15:28.180Z,981.91
2023-03-30T04:16:28.235Z,981.84
2023-03-30T04:17:28.247Z,981.90
2023-03-30T04:18:28.151Z,981.88
2023-03-30T04:19:28.130Z,981.93
2023-03-30T04:20:28.129Z,981.86
2023-03-30T04:21:28.106Z,981.83
2023-03-30T04:22:28.118Z,981.82
2023-03-30T04:23:28.077Z,981.89
2023-03-30T04:24:28.067Z,981.93
2023-03-30T04:25:28.048Z,981.86
2023-03-30T04:26:28.055Z,981.95
2023-03-30T04:27:28.051Z,981.82
2023-03-30T04:28:28.035Z,981.65
2023-03-30T04:29:28.033Z,981.63
2023-03-30T04:30:27.977Z,981.60
2023-03-30T04:31:28.033Z,981.54
2023-03-30T04:32:28.058Z,981.54
2023-03-30T04:33:27.984Z,981.47
2023-03-30T04:34:27.983Z,981.47
2023-03-30T04:35:27.952Z,981.45
2023-03-30T04:36:27.960Z,981.41
2023-03-30T04:37:27.919Z,981.54
2023-03-30T04:38:27.927Z,981.51
2023-03-30T04:39:27.910Z,981.42
2023-03-30T04:40:27.880Z,981.36
2023-03-30T04:41:27.875Z,981.32
2023-03-30T04:42:27.925Z,981.32
2023-03-30T04:43:27.882Z,981.33
2023-03-30T04:44:27.843Z,981.30
2023-03-30T04:45:27.933Z,981.32
2023-03-30T04:46:27.838Z,981.33
2023-03-30T04:47:27.835Z,981.30
2023-03-30T04:48:27.811Z,981.23
2023-03-30T04:49:27.823Z,981.23
2023-03-30T04:50:27.776Z,981.19
2023-03-30T04:51:27.760Z,981.13
2023-03-30T04:52:27.792Z,981.13
2023-03-30T04:53:27.735Z,981.15
2023-03-30T04:54:27.756Z,981.14
2023-03-30T04:55:27.742Z,981.10
2023-03-30T04:56:27.755Z,981.13
2023-03-30T04:57:27.794Z,981.14
2023-03-30T04:58:27.711Z,981.14
2023-03-30T04:59:27.713Z,981.09
2023-03-30T05:00:27.675Z,981.16
2023-03-30T05:01:27.706Z,981.14
2023-03-30T05:02:27.804Z,981.15
2023-03-30T05:03:27.801Z,981.19
2023-03-30T05:04:27.626Z,981.14
2023-03-30T05:05:27.642Z,981.16
2023-03-30T05:06:27.620Z,981.15
2023-03-30T05:07:27.625Z,981.16
2023-03-30T05:08:27.593Z,981.11
2023-03-30T05:09:27.604Z,981.09
2023-03-30T05:10:27.553Z,981.05
2023-03-30T05:11:27.551Z,981.08
2023-03-30T05:12:27.563Z,981.12
2023-03-30T05:13:27.574Z,981.06
2023-03-30T05:14:27.499Z,981.08
2023-03-30T05:15:27.533Z,981.06
2023-03-30T05:16:27.602Z,980.99
2023-03-30T05:17:27.558Z,980.91
2023-03-30T05:18:27.531Z,980.89
2023-03-30T05:19:27.493Z,980.93
2023-03-30T05:20:27.434Z,980.91
2023-03-30T05:21:27.495Z,980.84
2023-03-30T05:22:27.458Z,980.84
2023-03-30T05:23:27.422Z,980.82
2023-03-30T05:24:27.433Z,980.90
2023-03-30T05:25:27.412Z,980.91
2023-03-30T05:26:27.441Z,980.99
2023-03-30T05:27:27.380Z,980.98
2023-03-30T05:28:27.388Z,981.01
2023-03-30T05:29:27.360Z,981.04
2023-03-30T05:30:27.361Z,981.03
2023-03-30T05:31:27.383Z,981.07
2023-03-30T05:32:27.386Z,981.04
2023-03-30T05:33:27.334Z,981.05
2023-03-30T05:34:27.277Z,981.09
2023-03-30T05:35:27.325Z,981.07
2023-03-30T05:36:27.310Z,981.07
2023-03-30T05:37:27.278Z,981.03
2023-03-30T05:38:27.228Z,981.07
2023-03-30T05:39:27.256Z,981.03
2023-03-30T05:40:27.284Z,981.06
2023-03-30T05:41:27.219Z,981.10
2023-03-30T05:42:27.243Z,981.04
2023-03-30T05:43:27.196Z,981.05
2023-03-30T05:44:27.200Z,981.04
2023-03-30T05:45:27.151Z,981.08
2023-03-30T05:46:27.196Z,981.13
2023-03-30T05:47:27.256Z,981.03
2023-03-30T05:48:27.115Z,981.00
2023-03-30T05:49:27.138Z,981.02
2023-03-30T05:50:27.128Z,981.07
2023-03-30T05:51:27.108Z,981.08
2023-03-30T05:52:27.123Z,981.08
2023-03-30T05:53:27.089Z,981.10
2023-03-30T05:54:27.095Z,981.06
2023-03-30T05:55:27.045Z,980.95
2023-03-30T05:56:27.067Z,980.99
2023-03-30T05:57:27.108Z,980.91
2023-03-30T05:58:27.081Z,980.83
2023-03-30T05:59:27.010Z,980.90
2023-03-30T06:00:27.039Z,980.96
2023-03-30T06:01:26.981Z,980.92
2023-03-30T06:02:27.116Z,980.91
2023-03-30T06:03:27.045Z,980.88
2023-03-30T06:04:27.001Z,980.89
2023-03-30T06:05:26.962Z,980.88
2023-03-30T06:06:26.956Z,980.93
2023-03-30T06:07:26.929Z,980.95
2023-03-30T06:08:26.924Z,980.94
2023-03-30T06:09:26.897Z,980.88
2023-03-30T06:10:26.914Z,980.88
2023-03-30T06:11:26.892Z,980.83
2023-03-30T06:12:26.877Z,980.85
2023-03-30T06:13:26.881Z,980.91
2023-03-30T06:14:26.837Z,980.96
2023-03-30T06:15:26.837Z,981.02
2023-03-30T06:16:26.947Z,980.93
2023-03-30T06:17:26.865Z,980.93
2023-03-30T06:18:26.837Z,980.93
2023-03-30T06:19:26.779Z,980.89
2023-03-30T06:20:26.815Z,981.02
2023-03-30T06:21:26.743Z,980.97
2023-03-30T06:22:26.791Z,981.01
2023-03-30T06:23:26.770Z,981.03
2023-03-30T06:24:26.770Z,980.99
2023-03-30T06:25:26.734Z,981.00
2023-03-30T06:26:26.794Z,981.02
2023-03-30T06:27:26.696Z,981.04
2023-03-30T06:28:26.683Z,981.09
2023-03-30T06:29:26.696Z,981.13
2023-03-30T06:30:26.859Z,981.11
2023-03-30T06:31:26.691Z,981.15
2023-03-30T06:32:26.674Z,981.10
2023-03-30T06:33:26.626Z,981.13
2023-03-30T06:34:26.579Z,981.19
2023-03-30T06:35:26.783Z,981.10
2023-03-30T06:36:43.833Z,981.07
2023-03-30T06:37:27.574Z,981.03
2023-03-30T06:38:26.600Z,981.01
2023-03-30T06:39:26.560Z,980.98
2023-03-30T06:40:26.561Z,980.98
2023-03-30T06:41:26.526Z,980.92
2023-03-30T06:42:26.547Z,980.91
2023-03-30T06:43:26.521Z,980.91
2023-03-30T06:44:26.514Z,980.91
2023-03-30T06:45:26.504Z,980.91
2023-03-30T06:46:26.532Z,980.94
2023-03-30T06:47:26.483Z,980.92
2023-03-30T06:48:26.788Z,980.95
2023-03-30T06:49:26.439Z,981.02
2023-03-30T06:50:26.484Z,981.02
2023-03-30T06:51:26.397Z,981.03
2023-03-30T06:52:26.425Z,981.12
2023-03-30T06:53:26.367Z,981.12
2023-03-30T06:54:26.406Z,981.14
2023-03-30T06:55:26.378Z,981.10
2023-03-30T06:56:26.371Z,981.15
2023-03-30T06:57:26.497Z,981.16
2023-03-30T06:58:26.359Z,981.18
2023-03-30T06:59:26.343Z,981.07
2023-03-30T07:00:26.370Z,981.04
2023-03-30T07:01:26.337Z,981.12
2023-03-30T07:02:26.332Z,981.12
2023-03-30T07:03:26.278Z,981.13
2023-03-30T07:04:26.398Z,981.13
2023-03-30T07:05:26.258Z,981.21
2023-03-30T07:06:26.269Z,981.14
2023-03-30T07:07:26.272Z,981.15
2023-03-30T07:08:26.262Z,981.19
2023-03-30T07:09:26.217Z,981.19
2023-03-30T07:10:26.300Z,981.22
2023-03-30T07:11:26.244Z,981.24
2023-03-30T07:12:26.212Z,981.32
2023-03-30T07:13:26.180Z,981.35
2023-03-30T07:14:26.166Z,981.36
2023-03-30T07:15:26.482Z,981.36
2023-03-30T07:16:26.202Z,981.45
2023-03-30T07:17:27.031Z,981.34
2023-03-30T07:18:27.124Z,981.37
2023-03-30T07:19:26.099Z,981.31
2023-03-30T07:20:26.134Z,981.31
2023-03-30T07:21:26.081Z,981.25
2023-03-30T07:22:26.106Z,981.33
2023-03-30T07:23:26.062Z,981.25
2023-03-30T07:24:26.029Z,981.20
2023-03-30T07:25:26.060Z,981.22
2023-03-30T07:26:26.004Z,981.18
2023-03-30T07:27:26.047Z,981.17
2023-03-30T07:28:26.107Z,981.15
2023-03-30T07:29:26.027Z,981.13
2023-03-30T07:30:26.087Z,981.23
2023-03-30T07:31:26.000Z,981.37
2023-03-30T07:32:26.179Z,981.45
2023-03-30T07:33:25.997Z,981.37
2023-03-30T07:34:25.948Z,981.49
2023-03-30T07:35:25.916Z,981.48
2023-03-30T07:36:25.937Z,981.53
2023-03-30T07:37:25.902Z,981.47
2023-03-30T07:38:25.911Z,981.42
2023-03-30T07:39:25.886Z,981.39
2023-03-30T07:40:25.941Z,981.38
2023-03-30T07:41:25.857Z,981.35
2023-03-30T07:42:25.845Z,981.33
2023-03-30T07:43:25.870Z,981.35
2023-03-30T07:44:25.783Z,981.31
2023-03-30T07:45:26.849Z,981.30
2023-03-30T07:46:25.862Z,981.34
2023-03-30T07:47:25.834Z,981.41
2023-03-30T07:48:25.759Z,981.44
2023-03-30T07:49:25.800Z,981.24
2023-03-30T07:50:25.976Z,981.30
2023-03-30T07:51:28.018Z,981.24
2023-03-30T07:52:26.744Z,981.28
2023-03-30T07:53:25.817Z,981.31
2023-03-30T07:54:25.701Z,981.34
2023-03-30T07:55:25.684Z,981.29
2023-03-30T07:56:25.712Z,981.22
2023-03-30T07:57:25.708Z,981.21
2023-03-30T07:58:25.674Z,981.17
2023-03-30T07:59:25.647Z,981.06
2023-03-30T08:00:25.646Z,981.15
2023-03-30T08:01:25.635Z,981.14
2023-03-30T08:02:25.668Z,981.11
2023-03-30T08:03:25.766Z,981.09
2023-03-30T08:04:26.517Z,981.14
2023-03-30T08:05:26.603Z,981.03
2023-03-30T08:06:25.560Z,981.05
2023-03-30T08:07:25.624Z,981.07
2023-03-30T08:08:25.553Z,981.05
2023-03-30T08:09:25.548Z,981.02
2023-03-30T08:10:25.543Z,981.02
2023-03-30T08:11:25.507Z,981.01
2023-03-30T08:12:25.591Z,980.93
2023-03-30T08:13:25.520Z,980.92
2023-03-30T08:14:25.475Z,980.84
2023-03-30T08:15:25.492Z,980.89
2023-03-30T08:16:25.542Z,980.86
2023-03-30T08:17:25.543Z,980.95
2023-03-30T08:18:27.820Z,980.87
2023-03-30T08:19:25.453Z,980.83
2023-03-30T08:20:25.422Z,980.81
2023-03-30T08:21:25.405Z,980.82
2023-03-30T08:22:25.457Z,980.76
2023-03-30T08:23:25.399Z,980.74
2023-03-30T08:24:25.368Z,980.74
2023-03-30T08:25:25.385Z,980.84
2023-03-30T08:26:25.369Z,980.83
2023-03-30T08:27:25.366Z,980.73
2023-03-30T08:28:25.321Z,980.74
2023-03-30T08:29:25.369Z,980.72
2023-03-30T08:30:25.289Z,980.68
2023-03-30T08:31:25.359Z,980.78
2023-03-30T08:32:25.304Z,980.72
2023-03-30T08:33:25.309Z,980.71
2023-03-30T08:34:25.293Z,980.67
2023-03-30T08:35:25.261Z,980.68
2023-03-30T08:36:25.274Z,980.65
2023-03-30T08:37:25.273Z,980.68
2023-03-30T08:38:25.242Z,980.56
2023-03-30T08:39:25.214Z,980.53
2023-03-30T08:40:25.204Z,980.66
2023-03-30T08:41:25.204Z,980.55
2023-03-30T08:42:25.225Z,980.63
2023-03-30T08:43:25.170Z,980.58
2023-03-30T08:44:25.151Z,980.63
2023-03-30T08:45:25.306Z,980.59
2023-03-30T08:46:25.214Z,980.50
2023-03-30T08:47:25.199Z,980.58
2023-03-30T08:48:25.144Z,980.60
2023-03-30T08:49:25.098Z,980.59
2023-03-30T08:50:25.067Z,980.66
2023-03-30T08:51:25.077Z,980.56
2023-03-30T08:52:25.100Z,980.55
2023-03-30T08:53:25.056Z,980.48
2023-03-30T08:54:25.053Z,980.45
2023-03-30T08:55:25.046Z,980.42
2023-03-30T08:56:25.027Z,980.36
2023-03-30T08:57:25.071Z,980.33
2023-03-30T08:58:25.054Z,980.41
2023-03-30T08:59:25.012Z,980.40
2023-03-30T09:00:24.962Z,980.34
2023-03-30T09:01:25.060Z,980.34
2023-03-30T09:02:24.955Z,980.39
2023-03-30T09:03:24.940Z,980.44
2023-03-30T09:04:24.967Z,980.40
2023-03-30T09:05:25.015Z,980.33
2023-03-30T09:06:24.925Z,980.34
2023-03-30T09:07:24.924Z,980.29
2023-03-30T09:08:24.938Z,980.28
2023-03-30T09:09:24.914Z,980.23
2023-03-30T09:10:24.944Z,980.17
2023-03-30T09:11:24.874Z,980.11
2023-03-30T09:12:24.829Z,980.12
2023-03-30T09:13:24.852Z,980.20
2023-03-30T09:14:24.838Z,980.04
2023-03-30T09:15:25.814Z,980.20
2023-03-30T09:16:24.806Z,980.12
2023-03-30T09:17:24.797Z,979.99
2023-03-30T09:18:24.795Z,980.12
2023-03-30T09:19:24.792Z,980.10
2023-03-30T09:20:24.773Z,980.04
2023-03-30T09:21:24.753Z,980.07
2023-03-30T09:22:24.773Z,979.98
2023-03-30T09:23:24.739Z,980.05
2023-03-30T09:24:24.724Z,980.00
2023-03-30T09:25:24.719Z,979.96
2023-03-30T09:26:24.675Z,980.06
2023-03-30T09:27:24.696Z,979.91
2023-03-30T09:28:24.700Z,980.01
2023-03-30T09:29:24.729Z,980.10
2023-03-30T09:30:24.724Z,979.99
2023-03-30T09:31:24.676Z,980.17
2023-03-30T09:32:24.675Z,980.17
2023-03-30T09:33:24.600Z,980.11
2023-03-30T09:34:24.634Z,980.14
2023-03-30T09:35:24.607Z,980.03
2023-03-30T09:36:24.638Z,980.10
2023-03-30T09:37:24.567Z,980.17
2023-03-30T09:38:24.574Z,980.21
2023-03-30T09:39:24.589Z,980.04
2023-03-30T09:40:24.522Z,980.17
2023-03-30T09:41:24.563Z,980.02
2023-03-30T09:42:24.511Z,980.05
2023-03-30T09:43:24.560Z,980.04
2023-03-30T09:44:24.510Z,979.98
2023-03-30T09:45:24.496Z,980.09
2023-03-30T09:46:24.547Z,979.93
2023-03-30T09:47:24.608Z,980.07
2023-03-30T09:48:24.465Z,980.06
2023-03-30T09:49:24.446Z,980.17
2023-03-30T09:50:24.443Z,980.08
2023-03-30T09:51:24.439Z,980.02
2023-03-30T09:52:24.442Z,980.03
2023-03-30T09:53:24.404Z,979.99
2023-03-30T09:54:25.423Z,980.11
2023-03-30T09:55:24.371Z,980.08
2023-03-30T09:56:24.394Z,980.03
2023-03-30T09:57:24.404Z,980.07
2023-03-30T09:58:24.404Z,980.07
2023-03-30T09:59:24.358Z,980.00
2023-03-30T10:00:24.314Z,980.03
2023-03-30T10:01:24.390Z,979.90
2023-03-30T10:02:24.486Z,979.92
2023-03-30T10:03:24.475Z,979.95
2023-03-30T10:04:24.306Z,979.82
2023-03-30T10:05:24.292Z,979.87
2023-03-30T10:06:24.243Z,979.87
2023-03-30T10:07:24.282Z,979.82
2023-03-30T10:08:25.301Z,979.91
2023-03-30T10:09:25.237Z,979.79
2023-03-30T10:10:24.239Z,980.00
2023-03-30T10:11:24.226Z,979.90
2023-03-30T10:12:24.257Z,979.94
2023-03-30T10:13:24.172Z,980.00
2023-03-30T10:14:25.168Z,979.80
2023-03-30T10:15:24.175Z,979.82
2023-03-30T10:16:24.251Z,979.77
2023-03-30T10:17:24.137Z,979.81
2023-03-30T10:18:24.171Z,979.79
2023-03-30T10:19:24.200Z,979.84
2023-03-30T10:20:24.145Z,979.72
2023-03-30T10:21:24.149Z,979.81
2023-03-30T10:22:24.114Z,979.80
2023-03-30T10:23:24.101Z,979.68
2023-03-30T10:24:24.076Z,979.75
2023-03-30T10:25:24.077Z,979.79
2023-03-30T10:26:24.076Z,979.84
2023-03-30T10:27:24.046Z,979.84
2023-03-30T10:28:24.039Z,979.83
2023-03-30T10:29:24.052Z,979.70
2023-03-30T10:30:23.988Z,979.72
2023-03-30T10:31:26.438Z,979.79
2023-03-30T10:32:24.051Z,979.84
2023-03-30T10:33:24.039Z,979.84
2023-03-30T10:34:23.961Z,979.74
2023-03-30T10:35:23.950Z,979.79
2023-03-30T10:36:23.980Z,979.82
2023-03-30T10:37:23.997Z,979.87
2023-03-30T10:38:23.960Z,979.74
2023-03-30T10:39:23.962Z,979.77
2023-03-30T10:40:23.920Z,979.76
2023-03-30T10:41:23.905Z,979.73
2023-03-30T10:42:23.946Z,979.76
2023-03-30T10:43:23.931Z,979.67
2023-03-30T10:44:23.912Z,979.72
2023-03-30T10:45:23.914Z,979.77
2023-03-30T10:46:24.120Z,979.79
2023-03-30T10:47:24.897Z,979.79
2023-03-30T10:48:23.873Z,979.79
2023-03-30T10:49:23.853Z,979.73
2023-03-30T10:50:23.781Z,979.77
2023-03-30T10:51:23.801Z,979.72
2023-03-30T10:52:23.854Z,979.64
2023-03-30T10:53:24.818Z,979.58
2023-03-30T10:54:23.746Z,979.65
2023-03-30T10:55:23.758Z,979.61
2023-03-30T10:56:23.749Z,979.70
2023-03-30T10:57:23.785Z,979.66
2023-03-30T10:58:23.693Z,979.66
2023-03-30T10:59:23.742Z,979.72
2023-03-30T11:00:23.769Z,979.63
2023-03-30T11:01:23.711Z,979.59
2023-03-30T11:02:23.752Z,979.60
2023-03-30T11:03:23.841Z,979.55
2023-03-30T11:04:24.358Z,979.51
2023-03-30T11:05:23.664Z,979.43
2023-03-30T11:06:23.664Z,979.43
2023-03-30T11:07:23.638Z,979.48
2023-03-30T11:08:23.608Z,979.39
2023-03-30T11:09:23.636Z,979.35
2023-03-30T11:10:23.630Z,979.44
2023-03-30T11:11:23.608Z,979.41
2023-03-30T11:12:23.595Z,979.54
2023-03-30T11:13:23.612Z,979.53
2023-03-30T11:14:23.530Z,979.65
2023-03-30T11:15:23.546Z,979.72
2023-03-30T11:16:23.607Z,979.84
2023-03-30T11:17:23.504Z,980.02
2023-03-30T11:18:23.533Z,980.29
2023-03-30T11:19:23.587Z,980.11
2023-03-30T11:20:23.493Z,980.21
2023-03-30T11:21:23.466Z,980.32
2023-03-30T11:22:23.541Z,980.55
2023-03-30T11:23:23.476Z,980.62
2023-03-30T11:24:23.433Z,980.54
2023-03-30T11:25:23.447Z,980.58
2023-03-30T11:26:23.459Z,980.58
2023-03-30T11:27:23.407Z,980.63
2023-03-30T11:28:23.384Z,980.63
2023-03-30T11:29:23.374Z,980.66
2023-03-30T11:30:23.392Z,980.77
2023-03-30T11:31:23.392Z,980.77
2023-03-30T11:32:23.341Z,980.84
2023-03-30T11:33:23.365Z,980.86
2023-03-30T11:34:23.312Z,980.90
2023-03-30T11:35:23.327Z,980.80
2023-03-30T11:36:23.454Z,980.99
2023-03-30T11:37:23.311Z,980.81
2023-03-30T11:38:23.269Z,980.67
2023-03-30T11:39:31.506Z,980.76
2023-03-30T11:40:26.853Z,980.80
2023-03-30T11:41:24.250Z,980.81
2023-03-30T11:42:23.260Z,980.81
2023-03-30T11:43:23.232Z,980.86
2023-03-30T11:44:23.202Z,980.79
2023-03-30T11:45:23.218Z,980.87
2023-03-30T11:46:23.259Z,980.91
2023-03-30T11:47:23.199Z,980.91
2023-03-30T11:48:23.176Z,980.96
2023-03-30T11:49:23.181Z,980.94
2023-03-30T11:50:23.159Z,981.12
2023-03-30T11:51:23.151Z,981.19
2023-03-30T11:52:23.155Z,981.19
2023-03-30T11:53:23.120Z,981.25
2023-03-30T11:54:23.099Z,981.32
2023-03-30T11:55:23.097Z,981.42
2023-03-30T11:56:25.065Z,981.41
2023-03-30T11:57:23.150Z,981.51
2023-03-30T11:58:23.081Z,981.55
2023-03-30T11:59:23.085Z,981.69
2023-03-30T12:00:23.050Z,981.68
2023-03-30T12:01:23.029Z,981.77
2023-03-30T12:02:23.067Z,981.81
2023-03-30T12:03:23.284Z,981.90
2023-03-30T12:04:23.068Z,981.72
2023-03-30T12:05:23.006Z,981.94
2023-03-30T12:06:22.985Z,981.57
2023-03-30T12:07:22.998Z,981.40
2023-03-30T12:08:22.923Z,981.42
2023-03-30T12:09:22.936Z,981.36
2023-03-30T12:10:22.977Z,981.40
2023-03-30T12:11:22.905Z,981.41
2023-03-30T12:12:22.880Z,981.38
2023-03-30T12:13:22.911Z,981.30
2023-03-30T12:14:22.858Z,981.25
2023-03-30T12:15:22.879Z,981.25
2023-03-30T12:16:22.968Z,981.17
2023-03-30T12:17:22.911Z,981.21
2023-03-30T12:18:22.822Z,981.16
2023-03-30T12:19:22.825Z,981.23
2023-03-30T12:20:22.833Z,981.19
2023-03-30T12:21:22.804Z,981.24
2023-03-30T12:22:22.812Z,981.21
2023-03-30T12:23:22.801Z,981.18
2023-03-30T12:24:22.750Z,981.20
2023-03-30T12:25:22.748Z,981.26
2023-03-30T12:26:22.764Z,981.20
2023-03-30T12:27:22.757Z,981.19
2023-03-30T12:28:22.710Z,981.30